createdAt,value
2023-05-06T00:02:24.320Z,5.13
2023-05-06T00:04:54.471Z,4.93
2023-05-06T00:07:24.971Z,4.32
2023-05-06T00:09:55.102Z,8.57
2023-05-06T00:12:25.194Z,3.35
2023-05-06T00:14:55.518Z,4.32
2023-05-06T00:17:25.813Z,3.33
2023-05-06T00:19:56.400Z,5.35
2023-05-06T00:22:26.458Z,5.18
2023-05-06T00:24:56.733Z,4.40
2023-05-06T00:27:27.349Z,5.20
2023-05-06T00:29:58.140Z,6.05
2023-05-06T00:32:28.388Z,6.63
2023-05-06T00:34:58.520Z,3.75
2023-05-06T00:37:28.672Z,4.70
2023-05-06T00:40:03.680Z,3.20
2023-05-06T00:42:34.509Z,7.85
2023-05-06T00:45:05.070Z,5.47
2023-05-06T00:47:35.333Z,3.58
2023-05-06T00:50:06.091Z,4.18
2023-05-06T00:52:36.277Z,6.97
2023-05-06T00:55:06.868Z,6.70
2023-05-06T00:57:37.712Z,3.97
2023-05-06T01:00:08.705Z,6.25
2023-05-06T01:02:46.909Z,3.47
2023-05-06T01:05:21.229Z,3.92
2023-05-06T01:08:06.506Z,9.43
2023-05-06T01:10:50.050Z,9.50
2023-05-06T01:13:36.228Z,6.43
2023-05-06T01:16:09.073Z,4.30
2023-05-06T01:18:40.081Z,5.22
2023-05-06T01:21:12.842Z,4.57
2023-05-06T01:23:58.388Z,4.80
2023-05-06T01:26:28.876Z,3.37
2023-05-06T01:28:59.758Z,6.57
2023-05-06T01:31:43.151Z,5.68
2023-05-06T01:34:21.137Z,3.65
2023-05-06T01:37:15.472Z,3.83
2023-05-06T01:39:46.988Z,3.20
2023-05-06T01:42:18.138Z,4.85
2023-05-06T01:44:49.901Z,4.00
2023-05-06T01:47:20.446Z,3.67
2023-05-06T01:49:50.648Z,5.63
2023-05-06T01:52:27.021Z,3.42
2023-05-06T01:55:00.149Z,3.60
2023-05-06T01:57:30.442Z,5.25
2023-05-06T02:00:00.674Z,8.45
2023-05-06T02:02:30.838Z,4.35
2023-05-06T02:05:04.332Z,2.25
2023-05-06T02:07:34.487Z,5.10
2023-05-06T02:10:05.142Z,4.22
2023-05-06T02:12:36.445Z,4.80
2023-05-06T02:15:10.150Z,3.10
2023-05-06T02:17:40.638Z,3.97
2023-05-06T02:20:11.055Z,3.35
2023-05-06T02:22:41.238Z,2.80
2023-05-06T02:25:11.618Z,6.10
2023-05-06T02:27:41.799Z,4.15
2023-05-06T02:30:12.657Z,5.00
2023-05-06T02:32:42.939Z,3.35
2023-05-06T02:35:13.084Z,3.35
2023-05-06T02:37:43.188Z,2.92
2023-05-06T02:40:13.508Z,8.35
2023-05-06T02:42:43.822Z,2.60
2023-05-06T02:45:13.982Z,4.30
2023-05-06T02:47:44.276Z,1.98
2023-05-06T02:50:14.889Z,3.03
2023-05-06T02:52:48.053Z,6.50
2023-05-06T02:55:21.169Z,2.75
2023-05-06T02:57:51.300Z,3.95
2023-05-06T03:00:21.550Z,4.25
2023-05-06T03:02:51.810Z,4.35
2023-05-06T03:05:22.151Z,2.47
2023-05-06T03:07:52.689Z,2.13
2023-05-06T03:10:22.948Z,3.20
2023-05-06T03:12:53.127Z,3.10
2023-05-06T03:15:31.894Z,4.03
2023-05-06T03:18:02.143Z,2.70
2023-05-06T03:20:32.321Z,2.70
2023-05-06T03:23:02.509Z,2.55
2023-05-06T03:25:32.664Z,2.65
2023-05-06T03:28:02.833Z,3.33
2023-05-06T03:30:32.979Z,2.45
2023-05-06T03:33:03.216Z,3.33
2023-05-06T03:35:33.371Z,7.90
2023-05-06T03:38:03.557Z,3.00
2023-05-06T03:40:33.969Z,2.30
2023-05-06T03:43:04.370Z,2.33
2023-05-06T03:45:34.579Z,2.17
2023-05-06T03:48:04.958Z,4.47
2023-05-06T03:50:35.549Z,5.22
2023-05-06T03:53:05.786Z,4.25
2023-05-06T03:55:36.089Z,3.72
2023-05-06T03:58:06.323Z,3.08
2023-05-06T04:00:37.102Z,2.05
2023-05-06T04:03:07.269Z,1.73
2023-05-06T04:05:37.487Z,3.25
2023-05-06T04:08:07.574Z,2.63
2023-05-06T04:10:41.076Z,1.88
2023-05-06T04:13:11.373Z,4.25
2023-05-06T04:15:41.746Z,4.38
2023-05-06T04:18:11.994Z,4.55
2023-05-06T04:20:42.153Z,3.30
2023-05-06T04:23:12.319Z,5.38
2023-05-06T04:25:44.376Z,2.97
2023-05-06T04:28:18.706Z,2.38
2023-05-06T04:30:48.789Z,3.88
2023-05-06T04:33:18.891Z,2.03
2023-05-06T04:35:56.599Z,2.03
2023-05-06T04:38:30.693Z,1.75
2023-05-06T04:41:00.927Z,2.00
2023-05-06T04:43:31.357Z,1.70
2023-05-06T04:46:01.707Z,1.83
2023-05-06T04:48:32.920Z,2.05
2023-05-06T04:51:06.670Z,2.63
2023-05-06T04:53:36.808Z,1.98
2023-05-06T04:56:08.139Z,2.83
2023-05-06T04:58:38.313Z,1.73
2023-05-06T05:01:09.707Z,2.95
2023-05-06T05:03:39.855Z,5.65
2023-05-06T05:06:10.227Z,4.00
2023-05-06T05:08:40.449Z,3.60
2023-05-06T05:11:10.570Z,4.57
2023-05-06T05:13:40.816Z,2.85
2023-05-06T05:16:11.056Z,1.88
2023-05-06T05:18:41.240Z,1.33
2023-05-06T05:21:11.402Z,2.30
2023-05-06T05:23:41.507Z,1.67
2023-05-06T05:26:11.607Z,3.47
2023-05-06T05:28:41.812Z,1.60
2023-05-06T05:31:12.013Z,3.70
2023-05-06T05:33:42.194Z,2.20
2023-05-06T05:36:15.419Z,1.23
2023-05-06T05:38:46.807Z,2.55
2023-05-06T05:41:17.567Z,3.53
2023-05-06T05:43:47.924Z,3.25
2023-05-06T05:46:18.150Z,2.38
2023-05-06T05:48:48.333Z,1.17
2023-05-06T05:51:18.386Z,3.05
2023-05-06T05:53:48.902Z,2.97
2023-05-06T05:56:19.108Z,1.63
2023-05-06T05:58:49.415Z,2.03
2023-05-06T06:01:19.607Z,1.67
2023-05-06T06:03:49.981Z,1.65
2023-05-06T06:06:20.575Z,1.08
2023-05-06T06:08:51.059Z,1.40
2023-05-06T06:11:21.627Z,1.92
2023-05-06T06:13:51.795Z,2.88
2023-05-06T06:16:22.106Z,2.13
2023-05-06T06:18:53.654Z,1.88
2023-05-06T06:21:23.790Z,1.50
2023-05-06T06:23:53.829Z,2.25
2023-05-06T06:26:24.025Z,2.28
2023-05-06T06:28:54.098Z,1.55
2023-05-06T06:31:24.266Z,1.33
2023-05-06T06:33:54.533Z,2.40
2023-05-06T06:36:24.783Z,2.63
2023-05-06T06:38:54.894Z,3.83
2023-05-06T06:41:25.087Z,3.50
2023-05-06T06:43:55.233Z,2.17
2023-05-06T06:46:25.472Z,2.15
2023-05-06T06:48:55.586Z,2.28
2023-05-06T06:51:26.061Z,3.50
2023-05-06T06:53:56.438Z,4.35
2023-05-06T06:56:26.604Z,2.00
2023-05-06T06:58:56.777Z,1.40
2023-05-06T07:01:26.845Z,1.73
2023-05-06T07:03:57.024Z,1.60
2023-05-06T07:06:27.119Z,2.72
2023-05-06T07:08:57.278Z,3.22
2023-05-06T07:11:27.341Z,5.55
2023-05-06T07:13:57.499Z,5.72
2023-05-06T07:16:27.617Z,2.53
2023-05-06T07:18:57.742Z,1.58
2023-05-06T07:21:28.069Z,2.50
2023-05-06T07:23:59.499Z,2.65
2023-05-06T07:26:29.771Z,4.43
2023-05-06T07:29:00.324Z,7.03
2023-05-06T07:31:33.146Z,1.67
2023-05-06T07:34:03.349Z,3.13
2023-05-06T07:36:41.125Z,2.20
2023-05-06T07:39:12.675Z,2.95
2023-05-06T07:41:42.932Z,1.83
2023-05-06T07:44:13.124Z,2.25
2023-05-06T07:46:43.364Z,3.78
2023-05-06T07:49:13.512Z,3.05
2023-05-06T07:51:44.513Z,3.22
2023-05-06T07:54:14.733Z,4.43
2023-05-06T07:56:44.871Z,3.08
2023-05-06T07:59:14.981Z,5.30
2023-05-06T08:01:45.142Z,2.45
2023-05-06T08:04:15.508Z,5.10
2023-05-06T08:06:45.819Z,2.05
2023-05-06T08:09:22.771Z,2.45
2023-05-06T08:11:53.486Z,3.67
2023-05-06T08:14:23.583Z,2.88
2023-05-06T08:16:54.427Z,3.88
2023-05-06T08:19:24.672Z,3.38
2023-05-06T08:21:54.845Z,5.90
2023-05-06T08:24:25.042Z,2.60
2023-05-06T08:26:55.337Z,2.28
2023-05-06T08:29:25.481Z,5.80
2023-05-06T08:31:55.697Z,1.92
2023-05-06T08:34:26.050Z,1.70
2023-05-06T08:36:56.987Z,3.53
2023-05-06T08:39:28.101Z,3.15
2023-05-06T08:42:00.139Z,2.35
2023-05-06T08:44:30.400Z,2.42
2023-05-06T08:47:00.589Z,3.05
2023-05-06T08:49:30.880Z,2.78
2023-05-06T08:52:05.478Z,5.15
2023-05-06T08:54:36.648Z,4.18
2023-05-06T08:57:12.561Z,3.00
2023-05-06T08:59:42.967Z,2.15
2023-05-06T09:02:13.571Z,2.60
2023-05-06T09:04:45.541Z,8.82
2023-05-06T09:07:15.643Z,6.05
2023-05-06T09:09:45.816Z,5.13
2023-05-06T09:12:15.997Z,2.70
2023-05-06T09:14:50.288Z,2.03
2023-05-06T09:17:27.003Z,1.80
2023-05-06T09:19:57.822Z,2.78
2023-05-06T09:22:29.938Z,1.95
2023-05-06T09:25:00.443Z,4.30
2023-05-06T09:27:36.827Z,2.88
2023-05-06T09:30:12.422Z,1.67
2023-05-06T09:32:43.570Z,1.63
2023-05-06T09:35:13.915Z,2.42
2023-05-06T09:37:45.010Z,6.13
2023-05-06T09:40:15.679Z,3.92
2023-05-06T09:42:45.890Z,3.17
2023-05-06T09:45:16.446Z,2.67
2023-05-06T09:47:47.337Z,2.22
2023-05-06T09:50:17.929Z,1.92
2023-05-06T09:52:49.897Z,3.25
2023-05-06T09:55:21.475Z,5.43
2023-05-06T09:57:52.212Z,3.95
2023-05-06T10:00:28.324Z,2.95
2023-05-06T10:02:59.354Z,3.28
2023-05-06T10:05:31.959Z,3.92
2023-05-06T10:08:04.506Z,4.07
2023-05-06T10:10:35.647Z,3.83
2023-05-06T10:13:06.020Z,4.45
2023-05-06T10:15:38.180Z,3.45
2023-05-06T10:18:09.664Z,3.35
2023-05-06T10:20:42.458Z,3.58
2023-05-06T10:23:44.941Z,3.15
2023-05-06T10:26:18.257Z,3.78
2023-05-06T10:28:53.330Z,3.58
2023-05-06T10:31:23.785Z,3.45
2023-05-06T10:33:55.062Z,3.58
2023-05-06T10:36:28.029Z,3.05
2023-05-06T10:39:01.775Z,3.40
2023-05-06T10:41:33.502Z,3.53
2023-05-06T10:44:03.946Z,3.95
2023-05-06T10:46:56.902Z,4.38
2023-05-06T10:49:27.813Z,2.25
2023-05-06T10:52:43.776Z,2.58
2023-05-06T10:55:31.867Z,2.50
2023-05-06T10:58:16.305Z,3.70
2023-05-06T11:00:55.852Z,3.25
2023-05-06T11:03:26.240Z,3.40
2023-05-06T11:05:56.486Z,3.38
2023-05-06T11:08:26.816Z,3.70
2023-05-06T11:10:57.177Z,2.70
2023-05-06T11:13:35.250Z,3.47
2023-05-06T11:16:05.594Z,3.38
2023-05-06T11:18:39.040Z,3.90
2023-05-06T11:21:09.092Z,2.88
2023-05-06T11:23:42.471Z,3.63
2023-05-06T11:26:14.401Z,3.38
2023-05-06T11:28:48.845Z,4.05
2023-05-06T11:31:21.322Z,2.92
2023-05-06T11:33:53.402Z,3.40
2023-05-06T11:36:23.727Z,7.97
2023-05-06T11:38:54.347Z,2.35
2023-05-06T11:41:24.542Z,3.83
2023-05-06T11:43:54.617Z,9.30
2023-05-06T11:46:30.020Z,5.63
2023-05-06T11:49:00.875Z,4.15
2023-05-06T11:51:32.215Z,3.83
2023-05-06T11:54:07.902Z,6.60
2023-05-06T11:56:49.303Z,5.37
2023-05-06T11:59:34.470Z,3.90
2023-05-06T12:02:08.058Z,5.00
2023-05-06T12:04:43.367Z,7.07
2023-05-06T12:07:15.689Z,4.60
2023-05-06T12:09:50.793Z,4.63
2023-05-06T12:12:23.970Z,5.88
2023-05-06T12:14:54.573Z,4.00
2023-05-06T12:17:25.082Z,3.28
2023-05-06T12:19:55.306Z,3.35
2023-05-06T12:22:25.590Z,2.72
2023-05-06T12:24:55.776Z,6.03
2023-05-06T12:27:33.201Z,3.00
2023-05-06T12:30:07.365Z,6.00
2023-05-06T12:32:57.377Z,10.80
2023-05-06T12:35:32.278Z,6.72
2023-05-06T12:38:16.655Z,7.35
2023-05-06T12:40:54.446Z,4.30
2023-05-06T12:43:31.615Z,12.15
2023-05-06T12:46:06.639Z,8.02
2023-05-06T12:48:36.939Z,5.47
2023-05-06T12:51:20.985Z,7.53
2023-05-06T12:53:51.509Z,4.38
2023-05-06T12:56:22.578Z,5.38
2023-05-06T12:59:02.972Z,3.60
2023-05-06T13:01:33.721Z,2.95
2023-05-06T13:04:04.064Z,6.30
2023-05-06T13:06:34.196Z,3.63
2023-05-06T13:09:05.168Z,2.90
2023-05-06T13:11:35.582Z,2.78
2023-05-06T13:14:05.804Z,3.70
2023-05-06T13:16:36.081Z,2.65
2023-05-06T13:19:07.199Z,3.85
2023-05-06T13:21:39.201Z,3.33
2023-05-06T13:24:09.835Z,3.58
2023-05-06T13:26:40.015Z,2.38
2023-05-06T13:29:10.118Z,2.35
2023-05-06T13:31:40.483Z,2.20
2023-05-06T13:34:10.870Z,3.10
2023-05-06T13:36:41.663Z,3.90
2023-05-06T13:39:11.902Z,3.40
2023-05-06T13:41:43.043Z,3.20
2023-05-06T13:44:14.060Z,3.13
2023-05-06T13:46:46.212Z,2.13
2023-05-06T13:49:17.168Z,2.97
2023-05-06T13:51:47.475Z,4.50
2023-05-06T13:54:17.626Z,2.45
2023-05-06T13:56:47.870Z,4.38
2023-05-06T13:59:17.968Z,4.45
2023-05-06T14:01:50.284Z,3.58
2023-05-06T14:04:20.356Z,3.80
2023-05-06T14:06:50.679Z,19.05
2023-05-06T14:09:23.628Z,8.77
2023-05-06T14:11:53.723Z,4.22
2023-05-06T14:14:23.914Z,4.65
2023-05-06T14:16:54.909Z,4.40
2023-05-06T14:19:25.570Z,5.15
2023-05-06T14:21:55.932Z,10.05
2023-05-06T14:24:26.072Z,8.13
2023-05-06T14:26:56.222Z,7.90
2023-05-06T14:29:26.506Z,6.25
2023-05-06T14:31:56.706Z,3.97
2023-05-06T14:34:27.288Z,4.10
2023-05-06T14:36:57.696Z,5.43
2023-05-06T14:39:27.839Z,3.80
2023-05-06T14:41:58.254Z,3.17
2023-05-06T14:44:28.418Z,3.08
2023-05-06T14:46:58.547Z,2.47
2023-05-06T14:49:28.772Z,4.35
2023-05-06T14:51:59.298Z,4.72
2023-05-06T14:54:29.516Z,5.85
2023-05-06T14:57:03.132Z,3.08
2023-05-06T14:59:33.541Z,3.70
2023-05-06T15:02:04.761Z,4.35
2023-05-06T15:04:35.251Z,1.85
2023-05-06T15:07:05.564Z,2.53
2023-05-06T15:09:35.751Z,4.80
2023-05-06T15:12:07.463Z,3.95
2023-05-06T15:14:38.548Z,3.85
2023-05-06T15:17:08.811Z,3.03
2023-05-06T15:19:39.466Z,5.32
2023-05-06T15:22:09.869Z,3.95
2023-05-06T15:24:40.707Z,3.25
2023-05-06T15:27:13.410Z,3.28
2023-05-06T15:29:43.698Z,3.55
2023-05-06T15:32:14.294Z,2.80
2023-05-06T15:34:44.581Z,2.72
2023-05-06T15:37:19.353Z,3.53
2023-05-06T15:39:49.962Z,4.07
2023-05-06T15:42:20.122Z,4.05
2023-05-06T15:44:51.688Z,2.83
2023-05-06T15:47:21.843Z,3.05
2023-05-06T15:50:10.916Z,3.90
2023-05-06T15:52:45.754Z,2.50
2023-05-06T15:55:17.056Z,7.00
2023-05-06T15:57:47.248Z,4.85
2023-05-06T16:00:17.632Z,7.88
2023-05-06T16:02:48.678Z,4.97
2023-05-06T16:05:21.403Z,3.10
2023-05-06T16:07:51.673Z,9.82
2023-05-06T16:10:21.904Z,5.82
2023-05-06T16:12:52.249Z,4.57
2023-05-06T16:15:22.470Z,6.60
2023-05-06T16:17:53.027Z,5.18
2023-05-06T16:20:23.472Z,4.82
2023-05-06T16:22:53.642Z,4.72
2023-05-06T16:25:24.011Z,5.00
2023-05-06T16:27:55.589Z,3.85
2023-05-06T16:30:26.038Z,3.10
2023-05-06T16:32:56.293Z,7.63
2023-05-06T16:35:26.649Z,2.83
2023-05-06T16:37:58.108Z,3.45
2023-05-06T16:40:28.360Z,3.22
2023-05-06T16:42:58.467Z,3.10
2023-05-06T16:45:28.710Z,4.10
2023-05-06T16:47:58.970Z,3.95
2023-05-06T16:50:29.238Z,3.80
2023-05-06T16:52:59.355Z,4.20
2023-05-06T16:55:29.626Z,4.43
2023-05-06T16:58:02.559Z,3.53
2023-05-06T17:00:32.823Z,3.72
2023-05-06T17:03:04.048Z,3.75
2023-05-06T17:05:34.452Z,3.47
2023-05-06T17:08:05.651Z,3.38
2023-05-06T17:10:37.026Z,4.20
2023-05-06T17:13:07.257Z,12.45
2023-05-06T17:15:37.550Z,11.55
2023-05-06T17:18:07.844Z,6.30
2023-05-06T17:20:51.699Z,5.57
2023-05-06T17:23:25.185Z,6.22
2023-05-06T17:25:56.769Z,5.95
2023-05-06T17:28:26.955Z,5.15
2023-05-06T17:30:57.106Z,4.57
2023-05-06T17:33:27.463Z,5.00
2023-05-06T17:35:57.630Z,5.15
2023-05-06T17:38:27.790Z,3.67
2023-05-06T17:40:57.961Z,4.28
2023-05-06T17:43:28.139Z,3.42
2023-05-06T17:45:58.345Z,6.68
2023-05-06T17:48:28.493Z,5.57
2023-05-06T17:51:04.690Z,6.90
2023-05-06T17:53:34.963Z,5.05
2023-05-06T17:56:05.232Z,3.92
2023-05-06T17:58:35.686Z,6.32
2023-05-06T18:01:06.006Z,8.00
2023-05-06T18:03:36.297Z,9.02
2023-05-06T18:06:06.837Z,9.40
2023-05-06T18:08:37.080Z,9.20
2023-05-06T18:11:07.155Z,11.65
2023-05-06T18:13:37.443Z,7.43
2023-05-06T18:16:07.842Z,9.75
2023-05-06T18:18:38.060Z,9.68
2023-05-06T18:21:08.305Z,8.85
2023-05-06T18:23:38.617Z,7.97
2023-05-06T18:26:09.008Z,10.35
2023-05-06T18:28:41.325Z,8.63
2023-05-06T18:31:11.600Z,7.30
2023-05-06T18:33:41.789Z,9.48
2023-05-06T18:36:14.665Z,9.50
2023-05-06T18:38:45.459Z,11.95
2023-05-06T18:41:15.757Z,10.45
2023-05-06T18:43:46.056Z,11.18
2023-05-06T18:46:16.340Z,10.98
2023-05-06T18:48:46.506Z,6.80
2023-05-06T18:51:18.034Z,10.70
2023-05-06T18:53:48.258Z,10.07
2023-05-06T18:56:18.411Z,9.73
2023-05-06T18:58:48.630Z,12.15
2023-05-06T19:01:18.900Z,10.05
2023-05-06T19:03:49.142Z,7.65
2023-05-06T19:06:19.381Z,16.60
2023-05-06T19:08:49.533Z,13.95
2023-05-06T19:11:19.749Z,24.00
2023-05-06T19:13:50.777Z,21.58
2023-05-06T19:16:21.300Z,19.48
2023-05-06T19:18:51.445Z,13.25
2023-05-06T19:21:21.964Z,10.57
2023-05-06T19:23:53.354Z,7.50
2023-05-06T19:26:23.520Z,8.57
2023-05-06T19:28:53.668Z,9.18
2023-05-06T19:31:23.854Z,8.50
2023-05-06T19:33:54.000Z,6.82
2023-05-06T19:36:24.131Z,12.13
2023-05-06T19:38:54.251Z,12.10
2023-05-06T19:41:24.547Z,14.00
2023-05-06T19:43:54.777Z,9.45
2023-05-06T19:46:24.979Z,12.35
2023-05-06T19:48:55.098Z,11.32
2023-05-06T19:51:25.179Z,10.88
2023-05-06T19:53:55.537Z,10.15
2023-05-06T19:56:25.866Z,7.95
2023-05-06T19:58:55.962Z,5.00
2023-05-06T20:01:27.347Z,4.82
2023-05-06T20:03:57.491Z,7.50
2023-05-06T20:06:29.589Z,4.47
2023-05-06T20:08:59.770Z,6.35
2023-05-06T20:11:29.894Z,5.47
2023-05-06T20:13:59.976Z,5.97
2023-05-06T20:16:30.434Z,6.28
2023-05-06T20:19:00.566Z,6.18
2023-05-06T20:21:31.646Z,7.25
2023-05-06T20:24:01.824Z,6.63
2023-05-06T20:26:31.907Z,13.65
2023-05-06T20:29:02.053Z,6.68
2023-05-06T20:31:32.227Z,6.65
2023-05-06T20:34:02.435Z,8.50
2023-05-06T20:36:35.112Z,8.02
2023-05-06T20:39:05.454Z,7.85
2023-05-06T20:41:36.003Z,10.05
2023-05-06T20:44:06.379Z,10.93
2023-05-06T20:46:36.669Z,8.00
2023-05-06T20:49:07.846Z,9.35
2023-05-06T20:51:38.076Z,13.02
2023-05-06T20:54:08.238Z,12.98
2023-05-06T20:56:38.462Z,10.05
2023-05-06T20:59:14.466Z,10.43
2023-05-06T21:01:44.639Z,9.97
2023-05-06T21:04:14.801Z,8.10
2023-05-06T21:06:44.913Z,7.57
2023-05-06T21:09:15.203Z,7.28
2023-05-06T21:11:45.464Z,7.93
2023-05-06T21:14:15.637Z,7.53
2023-05-06T21:16:45.963Z,9.63
2023-05-06T21:19:16.221Z,8.60
2023-05-06T21:21:46.659Z,9.30
2023-05-06T21:24:16.771Z,10.00
2023-05-06T21:26:47.038Z,7.47
2023-05-06T21:29:17.285Z,6.05
2023-05-06T21:31:47.550Z,5.28
2023-05-06T21:34:17.637Z,6.90
2023-05-06T21:36:47.771Z,4.45
2023-05-06T21:39:17.877Z,8.38
2023-05-06T21:41:48.396Z,7.43
2023-05-06T21:44:18.518Z,5.28
2023-05-06T21:46:48.857Z,5.05
2023-05-06T21:49:21.573Z,5.32
2023-05-06T21:51:51.672Z,4.68
2023-05-06T21:54:21.816Z,5.07
2023-05-06T21:56:51.883Z,4.85
2023-05-06T21:59:22.132Z,4.32
2023-05-06T22:01:52.335Z,4.32
2023-05-06T22:04:22.464Z,5.32
2023-05-06T22:06:52.560Z,5.40
2023-05-06T22:09:23.609Z,5.43
2023-05-06T22:11:53.825Z,7.07
2023-05-06T22:14:30.222Z,4.22
2023-05-06T22:17:08.265Z,6.13
2023-05-06T22:19:38.857Z,4.68
2023-05-06T22:22:09.885Z,3.70
2023-05-06T22:24:39.976Z,3.30
2023-05-06T22:27:10.234Z,7.13
2023-05-06T22:29:41.582Z,4.93
2023-05-06T22:32:11.753Z,6.65
2023-05-06T22:34:41.932Z,5.63
2023-05-06T22:37:12.079Z,3.72
2023-05-06T22:39:42.422Z,4.97
2023-05-06T22:42:12.598Z,4.20
2023-05-06T22:44:42.869Z,3.45
2023-05-06T22:47:13.051Z,5.63
2023-05-06T22:49:43.355Z,4.28
2023-05-06T22:52:13.530Z,3.88
2023-05-06T22:54:43.677Z,3.33
2023-05-06T22:57:14.539Z,4.00
2023-05-06T22:59:45.512Z,6.15
2023-05-06T23:02:15.579Z,5.40
2023-05-06T23:04:45.719Z,4.22
2023-05-06T23:07:15.891Z,5.43
2023-05-06T23:09:46.204Z,5.20
2023-05-06T23:12:16.444Z,3.83
2023-05-06T23:14:46.665Z,4.55
2023-05-06T23:17:16.854Z,4.50
2023-05-06T23:19:47.036Z,5.60
2023-05-06T23:22:17.238Z,5.03
2023-05-06T23:24:47.438Z,5.78
2023-05-06T23:27:17.534Z,6.07
2023-05-06T23:29:47.722Z,4.45
2023-05-06T23:32:17.887Z,6.05
2023-05-06T23:34:49.261Z,7.32
2023-05-06T23:37:19.513Z,3.85
2023-05-06T23:39:49.628Z,4.65
2023-05-06T23:42:19.793Z,6.65
2023-05-06T23:44:49.836Z,3.08
2023-05-06T23:47:20.048Z,3.80
2023-05-06T23:49:50.287Z,4.97
2023-05-06T23:52:20.468Z,7.80
2023-05-06T23:54:50.574Z,3.33
2023-05-06T23:57:21.050Z,3.53
2023-05-06T23:59:51.308Z,4.60
